sensor_id;sensor_type;location;lat;lon;timestamp;pressure;altitude;pressure_sealevel;temperature;humidity
44988;BME280;35735;52.226;21.254;2022-12-18T00:01:35;101679.06;;;-5.15;100.00
44988;BME280;35735;52.226;21.254;2022-12-18T00:06:37;101690.78;;;-5.12;100.00
44988;BME280;35735;52.226;21.254;2022-12-18T00:11:38;101694.56;;;-5.08;100.00
44988;BME280;35735;52.226;21.254;2022-12-18T00:16:38;101705.19;;;-4.96;100.00
44988;BME280;35735;52.226;21.254;2022-12-18T00:21:39;101709.34;;;-5.10;100.00
44988;BME280;35735;52.226;21.254;2022-12-18T00:26:40;101704.94;;;-4.99;100.00
44988;BME280;35735;52.226;21.254;2022-12-18T00:31:41;101714.41;;;-4.91;100.00
44988;BME280;35735;52.226;21.254;2022-12-18T00:36:42;101721.09;;;-4.85;100.00
44988;BME280;35735;52.226;21.254;2022-12-18T00:41:42;101728.56;;;-4.69;100.00
44988;BME280;35735;52.226;21.254;2022-12-18T00:46:44;101736.16;;;-4.61;100.00
44988;BME280;35735;52.226;21.254;2022-12-18T00:51:45;101744.38;;;-4.69;100.00
44988;BME280;35735;52.226;21.254;2022-12-18T00:56:45;101738.53;;;-4.65;100.00
44988;BME280;35735;52.226;21.254;2022-12-18T01:01:46;101738.28;;;-4.57;100.00
44988;BME280;35735;52.226;21.254;2022-12-18T01:06:47;101747.53;;;-4.62;100.00
44988;BME280;35735;52.226;21.254;2022-12-18T01:11:48;101746.19;;;-4.57;100.00
44988;BME280;35735;52.226;21.254;2022-12-18T01:16:48;101758.00;;;-4.52;100.00
44988;BME280;35735;52.226;21.254;2022-12-18T01:21:49;101770.41;;;-4.61;100.00
44988;BME280;35735;52.226;21.254;2022-12-18T01:26:50;101771.59;;;-4.58;100.00
44988;BME280;35735;52.226;21.254;2022-12-18T01:31:50;101773.56;;;-4.55;100.00
44988;BME280;35735;52.226;21.254;2022-12-18T01:36:51;101779.63;;;-4.56;100.00
44988;BME280;35735;52.226;21.254;2022-12-18T01:41:51;101788.38;;;-4.68;100.00
44988;BME280;35735;52.226;21.254;2022-12-18T01:46:52;101799.97;;;-4.66;100.00
44988;BME280;35735;52.226;21.254;2022-12-18T01:51:52;101807.19;;;-4.63;100.00
44988;BME280;35735;52.226;21.254;2022-12-18T01:56:53;101823.13;;;-4.61;100.00
44988;BME280;35735;52.226;21.254;2022-12-18T02:01:54;101826.78;;;-4.49;100.00
44988;BME280;35735;52.226;21.254;2022-12-18T02:18:21;101837.84;;;-4.53;100.00
44988;BME280;35735;52.226;21.254;2022-12-18T02:29:29;101850.25;;;-4.52;100.00
44988;BME280;35735;52.226;21.254;2022-12-18T02:34:37;101854.19;;;-4.47;100.00
44988;BME280;35735;52.226;21.254;2022-12-18T02:39:42;101867.91;;;-4.41;100.00
44988;BME280;35735;52.226;21.254;2022-12-18T02:44:49;101866.25;;;-4.29;100.00
44988;BME280;35735;52.226;21.254;2022-12-18T03:00:19;101884.72;;;-4.29;100.00
44988;BME280;35735;52.226;21.254;2022-12-18T03:05:26;101896.31;;;-4.26;100.00
44988;BME280;35735;52.226;21.254;2022-12-18T03:10:32;101904.34;;;-4.25;100.00
44988;BME280;35735;52.226;21.254;2022-12-18T03:15:39;101905.81;;;-4.29;100.00
44988;BME280;35735;52.226;21.254;2022-12-18T03:20:45;101919.25;;;-4.25;100.00
44988;BME280;35735;52.226;21.254;2022-12-18T03:25:52;101924.00;;;-4.32;100.00
44988;BME280;35735;52.226;21.254;2022-12-18T03:30:58;101921.94;;;-4.36;100.00
44988;BME280;35735;52.226;21.254;2022-12-18T03:36:00;101919.81;;;-4.40;100.00
44988;BME280;35735;52.226;21.254;2022-12-18T03:41:10;101928.00;;;-4.47;100.00
44988;BME280;35735;52.226;21.254;2022-12-18T03:46:58;101942.88;;;-4.58;100.00
44988;BME280;35735;52.226;21.254;2022-12-18T03:52:36;101965.28;;;-4.63;100.00
44988;BME280;35735;52.226;21.254;2022-12-18T03:57:41;101964.91;;;-4.57;100.00
44988;BME280;35735;52.226;21.254;2022-12-18T04:02:49;101962.00;;;-4.60;100.00
44988;BME280;35735;52.226;21.254;2022-12-18T04:07:53;101961.09;;;-4.61;100.00
44988;BME280;35735;52.226;21.254;2022-12-18T04:12:57;101969.09;;;-4.59;100.00
44988;BME280;35735;52.226;21.254;2022-12-18T04:17:57;101984.69;;;-4.62;100.00
44988;BME280;35735;52.226;21.254;2022-12-18T04:22:58;101982.28;;;-4.70;100.00
44988;BME280;35735;52.226;21.254;2022-12-18T04:27:58;101988.88;;;-4.75;100.00
44988;BME280;35735;52.226;21.254;2022-12-18T04:32:59;102007.47;;;-4.73;100.00
44988;BME280;35735;52.226;21.254;2022-12-18T04:38:00;102027.88;;;-4.81;100.00
44988;BME280;35735;52.226;21.254;2022-12-18T04:43:00;102033.41;;;-4.78;100.00
44988;BME280;35735;52.226;21.254;2022-12-18T04:48:01;102040.94;;;-4.72;100.00
44988;BME280;35735;52.226;21.254;2022-12-18T04:53:03;102042.09;;;-4.89;100.00
44988;BME280;35735;52.226;21.254;2022-12-18T04:58:03;102046.28;;;-4.91;100.00
44988;BME280;35735;52.226;21.254;2022-12-18T05:03:04;102057.84;;;-4.99;100.00
44988;BME280;35735;52.226;21.254;2022-12-18T05:08:04;102050.34;;;-5.05;100.00
44988;BME280;35735;52.226;21.254;2022-12-18T05:13:05;102057.59;;;-5.03;100.00
44988;BME280;35735;52.226;21.254;2022-12-18T05:18:05;102071.28;;;-5.07;100.00
44988;BME280;35735;52.226;21.254;2022-12-18T05:23:06;102070.84;;;-5.11;100.00
44988;BME280;35735;52.226;21.254;2022-12-18T05:28:06;102076.91;;;-5.23;100.00
44988;BME280;35735;52.226;21.254;2022-12-18T05:33:07;102091.06;;;-5.31;100.00
44988;BME280;35735;52.226;21.254;2022-12-18T05:38:07;102101.75;;;-5.29;100.00
44988;BME280;35735;52.226;21.254;2022-12-18T05:43:08;102104.87;;;-5.33;100.00
44988;BME280;35735;52.226;21.254;2022-12-18T05:48:11;102119.66;;;-5.25;100.00
44988;BME280;35735;52.226;21.254;2022-12-18T05:53:14;102120.97;;;-5.20;100.00
44988;BME280;35735;52.226;21.254;2022-12-18T05:58:16;102118.91;;;-5.14;100.00
44988;BME280;35735;52.226;21.254;2022-12-18T06:03:16;102133.69;;;-5.06;100.00
44988;BME280;35735;52.226;21.254;2022-12-18T06:08:17;102140.47;;;-5.18;100.00
44988;BME280;35735;52.226;21.254;2022-12-18T06:13:17;102144.97;;;-5.17;100.00
44988;BME280;35735;52.226;21.254;2022-12-18T06:18:18;102160.75;;;-5.17;100.00
44988;BME280;35735;52.226;21.254;2022-12-18T06:23:18;102167.59;;;-5.19;100.00
44988;BME280;35735;52.226;21.254;2022-12-18T06:28:19;102173.31;;;-5.14;100.00
44988;BME280;35735;52.226;21.254;2022-12-18T06:33:20;102174.97;;;-5.15;100.00
44988;BME280;35735;52.226;21.254;2022-12-18T06:38:20;102180.25;;;-5.15;100.00
44988;BME280;35735;52.226;21.254;2022-12-18T06:43:21;102191.44;;;-5.17;100.00
44988;BME280;35735;52.226;21.254;2022-12-18T06:48:21;102212.66;;;-5.16;100.00
44988;BME280;35735;52.226;21.254;2022-12-18T06:53:22;102232.09;;;-5.24;100.00
44988;BME280;35735;52.226;21.254;2022-12-18T06:58:22;102230.09;;;-5.27;100.00
44988;BME280;35735;52.226;21.254;2022-12-18T07:03:23;102232.63;;;-5.18;100.00
44988;BME280;35735;52.226;21.254;2022-12-18T07:08:24;102242.09;;;-5.20;100.00
44988;BME280;35735;52.226;21.254;2022-12-18T07:13:24;102251.34;;;-5.15;100.00
44988;BME280;35735;52.226;21.254;2022-12-18T07:18:25;102265.56;;;-5.13;100.00
44988;BME280;35735;52.226;21.254;2022-12-18T07:23:25;102276.00;;;-5.14;100.00
44988;BME280;35735;52.226;21.254;2022-12-18T07:28:26;102292.06;;;-5.11;100.00
44988;BME280;35735;52.226;21.254;2022-12-18T07:33:26;102298.97;;;-5.22;100.00
44988;BME280;35735;52.226;21.254;2022-12-18T07:38:27;102297.19;;;-5.13;100.00
44988;BME280;35735;52.226;21.254;2022-12-18T07:43:28;102300.75;;;-5.12;100.00
44988;BME280;35735;52.226;21.254;2022-12-18T07:48:29;102299.03;;;-5.12;100.00
44988;BME280;35735;52.226;21.254;2022-12-18T07:53:30;102298.03;;;-5.04;100.00
44988;BME280;35735;52.226;21.254;2022-12-18T07:58:31;102307.44;;;-4.97;100.00
44988;BME280;35735;52.226;21.254;2022-12-18T08:03:32;102318.41;;;-4.92;100.00
44988;BME280;35735;52.226;21.254;2022-12-18T08:08:34;102328.13;;;-4.91;100.00
44988;BME280;35735;52.226;21.254;2022-12-18T08:13:35;102350.88;;;-5.02;100.00
44988;BME280;35735;52.226;21.254;2022-12-18T08:18:36;102342.66;;;-5.05;100.00
44988;BME280;35735;52.226;21.254;2022-12-18T08:23:38;102350.94;;;-4.92;100.00
44988;BME280;35735;52.226;21.254;2022-12-18T08:28:39;102354.78;;;-4.88;100.00
44988;BME280;35735;52.226;21.254;2022-12-18T08:33:41;102363.31;;;-4.72;100.00
44988;BME280;35735;52.226;21.254;2022-12-18T08:38:41;102365.72;;;-4.65;100.00
44988;BME280;35735;52.226;21.254;2022-12-18T08:43:42;102374.72;;;-4.62;100.00
44988;BME280;35735;52.226;21.254;2022-12-18T08:48:43;102379.19;;;-4.61;100.00
44988;BME280;35735;52.226;21.254;2022-12-18T08:53:44;102388.16;;;-4.59;100.00
44988;BME280;35735;52.226;21.254;2022-12-18T08:58:45;102391.75;;;-4.59;100.00
44988;BME280;35735;52.226;21.254;2022-12-18T09:03:45;102400.56;;;-4.58;100.00
44988;BME280;35735;52.226;21.254;2022-12-18T09:08:46;102406.06;;;-4.66;100.00
44988;BME280;35735;52.226;21.254;2022-12-18T09:13:46;102405.97;;;-4.57;100.00
44988;BME280;35735;52.226;21.254;2022-12-18T09:18:47;102408.81;;;-4.45;100.00
44988;BME280;35735;52.226;21.254;2022-12-18T09:23:52;102404.28;;;-4.37;100.00
44988;BME280;35735;52.226;21.254;2022-12-18T09:28:53;102421.16;;;-4.35;100.00
44988;BME280;35735;52.226;21.254;2022-12-18T09:33:55;102409.44;;;-4.29;100.00
44988;BME280;35735;52.226;21.254;2022-12-18T09:38:56;102411.84;;;-4.21;100.00
44988;BME280;35735;52.226;21.254;2022-12-18T09:44:00;102418.72;;;-4.23;100.00
44988;BME280;35735;52.226;21.254;2022-12-18T09:49:07;102420.06;;;-4.18;100.00
44988;BME280;35735;52.226;21.254;2022-12-18T09:54:18;102415.88;;;-4.06;100.00
44988;BME280;35735;52.226;21.254;2022-12-18T09:59:27;102419.91;;;-4.01;100.00
44988;BME280;35735;52.226;21.254;2022-12-18T10:04:32;102420.06;;;-3.89;100.00
44988;BME280;35735;52.226;21.254;2022-12-18T10:09:49;102421.03;;;-3.78;100.00
44988;BME280;35735;52.226;21.254;2022-12-18T10:20:56;102413.94;;;-3.69;100.00
44988;BME280;35735;52.226;21.254;2022-12-18T10:26:25;102414.25;;;-3.56;100.00
44988;BME280;35735;52.226;21.254;2022-12-18T10:31:26;102415.03;;;-3.46;100.00
44988;BME280;35735;52.226;21.254;2022-12-18T10:36:27;102423.37;;;-3.42;100.00
44988;BME280;35735;52.226;21.254;2022-12-18T10:41:27;102435.41;;;-3.35;100.00
44988;BME280;35735;52.226;21.254;2022-12-18T10:46:28;102439.13;;;-3.23;100.00
44988;BME280;35735;52.226;21.254;2022-12-18T10:51:33;102432.28;;;-3.10;100.00
44988;BME280;35735;52.226;21.254;2022-12-18T10:56:36;102426.72;;;-3.03;100.00
44988;BME280;35735;52.226;21.254;2022-12-18T11:12:14;102443.25;;;-2.95;100.00
44988;BME280;35735;52.226;21.254;2022-12-18T11:17:21;102432.56;;;-2.97;100.00
44988;BME280;35735;52.226;21.254;2022-12-18T11:22:33;102448.69;;;-2.94;100.00
44988;BME280;35735;52.226;21.254;2022-12-18T11:27:35;102453.69;;;-2.97;100.00
44988;BME280;35735;52.226;21.254;2022-12-18T11:32:43;102465.47;;;-2.83;100.00
44988;BME280;35735;52.226;21.254;2022-12-18T11:37:59;102456.63;;;-2.73;100.00
44988;BME280;35735;52.226;21.254;2022-12-18T11:43:11;102448.66;;;-2.63;100.00
44988;BME280;35735;52.226;21.254;2022-12-18T11:48:41;102454.50;;;-2.57;100.00
44988;BME280;35735;52.226;21.254;2022-12-18T11:53:44;102453.56;;;-2.47;100.00
44988;BME280;35735;52.226;21.254;2022-12-18T11:58:57;102455.41;;;-2.46;100.00
44988;BME280;35735;52.226;21.254;2022-12-18T12:09:57;102450.47;;;-2.31;100.00
44988;BME280;35735;52.226;21.254;2022-12-18T12:20:51;102469.53;;;-2.46;100.00
44988;BME280;35735;52.226;21.254;2022-12-18T12:32:04;102485.16;;;-2.49;100.00
44988;BME280;35735;52.226;21.254;2022-12-18T12:42:45;102476.94;;;-2.42;100.00
44988;BME280;35735;52.226;21.254;2022-12-18T12:47:54;102475.34;;;-2.39;100.00
44988;BME280;35735;52.226;21.254;2022-12-18T12:52:56;102494.16;;;-2.47;100.00
44988;BME280;35735;52.226;21.254;2022-12-18T12:58:29;102507.09;;;-2.39;100.00
44988;BME280;35735;52.226;21.254;2022-12-18T13:03:46;102510.78;;;-2.37;100.00
44988;BME280;35735;52.226;21.254;2022-12-18T13:08:58;102514.87;;;-2.31;100.00
44988;BME280;35735;52.226;21.254;2022-12-18T13:14:00;102518.19;;;-2.23;100.00
44988;BME280;35735;52.226;21.254;2022-12-18T13:19:00;102524.56;;;-2.31;100.00
44988;BME280;35735;52.226;21.254;2022-12-18T13:24:27;102540.84;;;-2.37;100.00
44988;BME280;35735;52.226;21.254;2022-12-18T13:29:45;102538.72;;;-2.41;100.00
44988;BME280;35735;52.226;21.254;2022-12-18T13:34:46;102541.50;;;-2.50;100.00
44988;BME280;35735;52.226;21.254;2022-12-18T13:39:46;102547.06;;;-2.57;100.00
44988;BME280;35735;52.226;21.254;2022-12-18T13:44:47;102559.44;;;-2.66;100.00
44988;BME280;35735;52.226;21.254;2022-12-18T13:49:47;102555.75;;;-2.68;100.00
44988;BME280;35735;52.226;21.254;2022-12-18T13:54:54;102548.59;;;-2.69;100.00
44988;BME280;35735;52.226;21.254;2022-12-18T13:59:57;102552.28;;;-2.77;100.00
44988;BME280;35735;52.226;21.254;2022-12-18T14:04:59;102554.16;;;-2.87;100.00
44988;BME280;35735;52.226;21.254;2022-12-18T14:09:59;102563.78;;;-2.87;100.00
44988;BME280;35735;52.226;21.254;2022-12-18T14:15:02;102576.47;;;-2.93;100.00
44988;BME280;35735;52.226;21.254;2022-12-18T14:20:04;102575.41;;;-2.95;100.00
44988;BME280;35735;52.226;21.254;2022-12-18T14:25:18;102587.47;;;-2.78;100.00
44988;BME280;35735;52.226;21.254;2022-12-18T14:30:29;102578.50;;;-2.70;100.00
44988;BME280;35735;52.226;21.254;2022-12-18T14:35:33;102594.88;;;-2.64;100.00
44988;BME280;35735;52.226;21.254;2022-12-18T14:40:37;102581.16;;;-2.60;100.00
44988;BME280;35735;52.226;21.254;2022-12-18T14:45:43;102583.25;;;-2.56;100.00
44988;BME280;35735;52.226;21.254;2022-12-18T14:50:45;102591.47;;;-2.63;100.00
44988;BME280;35735;52.226;21.254;2022-12-18T14:55:54;102589.06;;;-2.70;100.00
44988;BME280;35735;52.226;21.254;2022-12-18T15:00:55;102589.41;;;-2.86;100.00
44988;BME280;35735;52.226;21.254;2022-12-18T15:05:56;102592.19;;;-2.85;100.00
44988;BME280;35735;52.226;21.254;2022-12-18T15:10:56;102590.88;;;-2.80;100.00
44988;BME280;35735;52.226;21.254;2022-12-18T15:16:00;102614.13;;;-2.86;100.00
44988;BME280;35735;52.226;21.254;2022-12-18T15:21:09;102605.12;;;-2.88;100.00
44988;BME280;35735;52.226;21.254;2022-12-18T15:26:13;102610.28;;;-2.89;100.00
44988;BME280;35735;52.226;21.254;2022-12-18T15:36:16;102624.06;;;-2.83;100.00
44988;BME280;35735;52.226;21.254;2022-12-18T15:41:19;102627.13;;;-2.78;100.00
44988;BME280;35735;52.226;21.254;2022-12-18T15:46:23;102633.44;;;-2.87;100.00
44988;BME280;35735;52.226;21.254;2022-12-18T15:51:28;102643.31;;;-2.94;100.00
44988;BME280;35735;52.226;21.254;2022-12-18T15:56:30;102640.81;;;-2.93;100.00
44988;BME280;35735;52.226;21.254;2022-12-18T16:01:31;102643.84;;;-2.99;100.00
44988;BME280;35735;52.226;21.254;2022-12-18T16:06:31;102649.34;;;-3.06;100.00
44988;BME280;35735;52.226;21.254;2022-12-18T16:11:33;102655.53;;;-3.15;100.00
44988;BME280;35735;52.226;21.254;2022-12-18T16:16:34;102658.66;;;-3.20;100.00
44988;BME280;35735;52.226;21.254;2022-12-18T16:21:35;102652.66;;;-3.08;100.00
44988;BME280;35735;52.226;21.254;2022-12-18T16:26:36;102649.12;;;-2.99;100.00
44988;BME280;35735;52.226;21.254;2022-12-18T16:31:37;102645.75;;;-2.87;100.00
44988;BME280;35735;52.226;21.254;2022-12-18T16:36:37;102649.28;;;-2.87;100.00
44988;BME280;35735;52.226;21.254;2022-12-18T16:41:38;102655.03;;;-3.01;100.00
44988;BME280;35735;52.226;21.254;2022-12-18T16:46:38;102667.37;;;-3.21;100.00
44988;BME280;35735;52.226;21.254;2022-12-18T16:51:39;102665.81;;;-3.19;100.00
44988;BME280;35735;52.226;21.254;2022-12-18T16:56:40;102647.75;;;-3.14;100.00
44988;BME280;35735;52.226;21.254;2022-12-18T17:01:40;102671.91;;;-3.09;100.00
44988;BME280;35735;52.226;21.254;2022-12-18T17:06:43;102669.31;;;-3.28;100.00
44988;BME280;35735;52.226;21.254;2022-12-18T17:11:45;102670.94;;;-3.39;100.00
44988;BME280;35735;52.226;21.254;2022-12-18T17:16:46;102666.91;;;-3.36;100.00
44988;BME280;35735;52.226;21.254;2022-12-18T17:21:48;102673.19;;;-3.44;100.00
44988;BME280;35735;52.226;21.254;2022-12-18T17:26:49;102684.97;;;-3.40;100.00
44988;BME280;35735;52.226;21.254;2022-12-18T17:31:49;102696.31;;;-3.41;100.00
44988;BME280;35735;52.226;21.254;2022-12-18T17:36:50;102691.53;;;-3.45;100.00
44988;BME280;35735;52.226;21.254;2022-12-18T17:41:51;102678.31;;;-3.64;100.00
44988;BME280;35735;52.226;21.254;2022-12-18T17:46:51;102684.81;;;-3.80;100.00
44988;BME280;35735;52.226;21.254;2022-12-18T17:51:52;102686.53;;;-3.80;100.00
44988;BME280;35735;52.226;21.254;2022-12-18T17:56:52;102681.19;;;-3.72;100.00
44988;BME280;35735;52.226;21.254;2022-12-18T18:01:53;102686.09;;;-3.66;100.00
44988;BME280;35735;52.226;21.254;2022-12-18T18:06:53;102687.34;;;-3.62;100.00
44988;BME280;35735;52.226;21.254;2022-12-18T18:11:54;102705.66;;;-3.64;100.00
44988;BME280;35735;52.226;21.254;2022-12-18T18:16:54;102721.97;;;-3.68;100.00
44988;BME280;35735;52.226;21.254;2022-12-18T18:21:55;102716.91;;;-3.75;100.00
44988;BME280;35735;52.226;21.254;2022-12-18T18:26:56;102706.06;;;-3.78;100.00
44988;BME280;35735;52.226;21.254;2022-12-18T18:31:57;102700.84;;;-3.87;100.00
44988;BME280;35735;52.226;21.254;2022-12-18T18:36:58;102704.91;;;-3.91;100.00
44988;BME280;35735;52.226;21.254;2022-12-18T18:41:58;102707.19;;;-4.13;100.00
44988;BME280;35735;52.226;21.254;2022-12-18T18:46:59;102714.69;;;-4.17;100.00
44988;BME280;35735;52.226;21.254;2022-12-18T18:52:00;102729.00;;;-4.24;100.00
44988;BME280;35735;52.226;21.254;2022-12-18T18:57:00;102731.37;;;-4.36;100.00
44988;BME280;35735;52.226;21.254;2022-12-18T19:02:01;102738.69;;;-4.42;100.00
44988;BME280;35735;52.226;21.254;2022-12-18T19:07:01;102716.38;;;-4.45;100.00
44988;BME280;35735;52.226;21.254;2022-12-18T19:12:02;102722.25;;;-4.48;100.00
44988;BME280;35735;52.226;21.254;2022-12-18T19:17:03;102711.75;;;-4.57;100.00
44988;BME280;35735;52.226;21.254;2022-12-18T19:22:05;102708.78;;;-4.51;100.00
44988;BME280;35735;52.226;21.254;2022-12-18T19:27:06;102704.25;;;-4.43;100.00
44988;BME280;35735;52.226;21.254;2022-12-18T19:32:06;102722.56;;;-4.45;100.00
44988;BME280;35735;52.226;21.254;2022-12-18T19:37:07;102728.50;;;-4.56;100.00
44988;BME280;35735;52.226;21.254;2022-12-18T19:42:07;102719.81;;;-4.55;100.00
44988;BME280;35735;52.226;21.254;2022-12-18T19:47:08;102737.06;;;-4.59;100.00
44988;BME280;35735;52.226;21.254;2022-12-18T19:52:08;102735.06;;;-4.70;100.00
44988;BME280;35735;52.226;21.254;2022-12-18T19:57:09;102745.44;;;-4.72;100.00
44988;BME280;35735;52.226;21.254;2022-12-18T20:02:12;102748.37;;;-4.69;100.00
44988;BME280;35735;52.226;21.254;2022-12-18T20:07:13;102758.00;;;-4.69;100.00
44988;BME280;35735;52.226;21.254;2022-12-18T20:12:13;102748.06;;;-4.72;100.00
44988;BME280;35735;52.226;21.254;2022-12-18T20:17:14;102742.34;;;-4.68;100.00
44988;BME280;35735;52.226;21.254;2022-12-18T20:22:15;102743.72;;;-4.71;100.00
44988;BME280;35735;52.226;21.254;2022-12-18T20:27:15;102740.62;;;-4.67;100.00
44988;BME280;35735;52.226;21.254;2022-12-18T20:32:16;102745.28;;;-4.73;100.00
44988;BME280;35735;52.226;21.254;2022-12-18T20:37:16;102753.03;;;-4.75;100.00
44988;BME280;35735;52.226;21.254;2022-12-18T20:42:17;102741.13;;;-4.80;100.00
44988;BME280;35735;52.226;21.254;2022-12-18T20:47:17;102741.31;;;-4.87;100.00
44988;BME280;35735;52.226;21.254;2022-12-18T20:52:18;102743.62;;;-4.90;100.00
44988;BME280;35735;52.226;21.254;2022-12-18T20:57:18;102741.47;;;-4.94;100.00
44988;BME280;35735;52.226;21.254;2022-12-18T21:02:19;102734.16;;;-4.88;100.00
44988;BME280;35735;52.226;21.254;2022-12-18T21:07:19;102750.75;;;-4.80;100.00
44988;BME280;35735;52.226;21.254;2022-12-18T21:12:20;102775.22;;;-4.81;100.00
44988;BME280;35735;52.226;21.254;2022-12-18T21:17:21;102775.06;;;-4.83;100.00
44988;BME280;35735;52.226;21.254;2022-12-18T21:22:21;102767.31;;;-4.81;100.00
44988;BME280;35735;52.226;21.254;2022-12-18T21:27:22;102760.19;;;-4.74;100.00
44988;BME280;35735;52.226;21.254;2022-12-18T21:32:22;102767.03;;;-4.76;100.00
44988;BME280;35735;52.226;21.254;2022-12-18T21:37:23;102763.16;;;-4.88;100.00
44988;BME280;35735;52.226;21.254;2022-12-18T21:42:24;102750.16;;;-4.95;100.00
44988;BME280;35735;52.226;21.254;2022-12-18T21:47:24;102750.59;;;-4.99;100.00
44988;BME280;35735;52.226;21.254;2022-12-18T21:52:25;102751.56;;;-5.08;100.00
44988;BME280;35735;52.226;21.254;2022-12-18T21:57:25;102740.09;;;-5.17;100.00
44988;BME280;35735;52.226;21.254;2022-12-18T22:02:26;102723.03;;;-5.12;100.00
44988;BME280;35735;52.226;21.254;2022-12-18T22:07:26;102718.22;;;-4.98;100.00
44988;BME280;35735;52.226;21.254;2022-12-18T22:12:27;102706.75;;;-4.90;100.00
44988;BME280;35735;52.226;21.254;2022-12-18T22:17:27;102696.97;;;-4.91;100.00
44988;BME280;35735;52.226;21.254;2022-12-18T22:22:28;102691.13;;;-4.97;100.00
44988;BME280;35735;52.226;21.254;2022-12-18T22:27:28;102674.06;;;-5.10;100.00
44988;BME280;35735;52.226;21.254;2022-12-18T22:32:33;102668.22;;;-5.16;100.00
44988;BME280;35735;52.226;21.254;2022-12-18T22:37:34;102655.19;;;-5.23;100.00
44988;BME280;35735;52.226;21.254;2022-12-18T22:42:35;102651.66;;;-5.24;100.00
44988;BME280;35735;52.226;21.254;2022-12-18T22:47:35;102655.84;;;-5.26;100.00
44988;BME280;35735;52.226;21.254;2022-12-18T22:52:36;102653.06;;;-5.27;100.00
44988;BME280;35735;52.226;21.254;2022-12-18T22:57:36;102660.81;;;-5.29;100.00
44988;BME280;35735;52.226;21.254;2022-12-18T23:02:37;102650.87;;;-5.31;100.00
44988;BME280;35735;52.226;21.254;2022-12-18T23:07:37;102659.22;;;-5.18;100.00
44988;BME280;35735;52.226;21.254;2022-12-18T23:12:38;102652.69;;;-5.13;100.00
44988;BME280;35735;52.226;21.254;2022-12-18T23:17:38;102649.31;;;-5.12;100.00
44988;BME280;35735;52.226;21.254;2022-12-18T23:22:39;102658.62;;;-5.24;100.00
44988;BME280;35735;52.226;21.254;2022-12-18T23:27:39;102667.66;;;-5.40;100.00
44988;BME280;35735;52.226;21.254;2022-12-18T23:32:40;102652.94;;;-5.46;100.00
44988;BME280;35735;52.226;21.254;2022-12-18T23:37:41;102655.56;;;-5.55;100.00
44988;BME280;35735;52.226;21.254;2022-12-18T23:42:41;102652.50;;;-5.60;100.00
44988;BME280;35735;52.226;21.254;2022-12-18T23:47:42;102645.69;;;-5.66;100.00
44988;BME280;35735;52.226;21.254;2022-12-18T23:52:42;102650.75;;;-5.77;100.00
44988;BME280;35735;52.226;21.254;2022-12-18T23:57:43;102664.53;;;-5.79;100.00
